HUTR12 YWLM-YWLM
Flight info
| Callsign | HUTR12 |
|---|---|
| Flight time | 1h 10m |
| Altitude | 34000 |
| Route | WLM DCT LIMLO H536 OMLAV Q15 WOL H65 LEECE DCT LGGS DCT HST DCT GGV DCT CB DCT RCSE DCT LGDA DCT GLEN DCT 351829S1490728E 351726S1490824E 351654S1490853E DCT LGGN DCT CULIN Y59 TESAT H252 EKIPU DCT WLM |
| Aircraft | F35/M-SADILOTUV/C |
Departure
| Time | 2026-04-25 07:24 |
|---|---|
| Airport | Newcastle Airport (YWLM) |
Arrival
| Time | 2026-04-25 08:34 |
|---|---|
| Airport | Newcastle Airport (YWLM) |
| Time | Latitude | Longitude | Altitude | Speed | Heading |
|---|---|---|---|---|---|
| 2026-04-25 07:00 | -32.79053 | 151.83852 | 31 ft | 0 kts | 55° |
| 2026-04-25 07:19 | -32.79049 | 151.83879 | 31 ft | 6 kts | 119° |
| 2026-04-25 07:20 | -32.79080 | 151.83862 | 31 ft | 11 kts | 234° |
| 2026-04-25 07:20 | -32.79136 | 151.83770 | 31 ft | 15 kts | 232° |
| 2026-04-25 07:20 | -32.79216 | 151.83688 | 31 ft | 15 kts | 220° |
| 2026-04-25 07:20 | -32.79290 | 151.83612 | 31 ft | 14 kts | 220° |
| 2026-04-25 07:21 | -32.79369 | 151.83536 | 28 ft | 15 kts | 218° |
| 2026-04-25 07:21 | -32.79354 | 151.83442 | 28 ft | 14 kts | 310° |
| 2026-04-25 07:21 | -32.79272 | 151.83328 | 31 ft | 24 kts | 311° |
| 2026-04-25 07:21 | -32.79148 | 151.83153 | 32 ft | 29 kts | 310° |
| 2026-04-25 07:22 | -32.79056 | 151.83024 | 33 ft | 18 kts | 310° |
| 2026-04-25 07:22 | -32.78968 | 151.82903 | 30 ft | 23 kts | 311° |
| 2026-04-25 07:22 | -32.78846 | 151.82733 | 29 ft | 29 kts | 310° |
| 2026-04-25 07:22 | -32.78715 | 151.82550 | 28 ft | 29 kts | 310° |
| 2026-04-25 07:23 | -32.78629 | 151.82375 | 28 ft | 22 kts | 253° |
| 2026-04-25 07:23 | -32.78712 | 151.82289 | 26 ft | 15 kts | 189° |
| 2026-04-25 07:23 | -32.78849 | 151.82451 | 24 ft | 89 kts | 130° |
| 2026-04-25 07:23 | -32.79651 | 151.83585 | 258 ft | 256 kts | 129° |
| 2026-04-25 07:24 | -32.81092 | 151.85663 | 1192 ft | 376 kts | 127° |
| 2026-04-25 07:24 | -32.83094 | 151.87819 | 2965 ft | 397 kts | 152° |
| 2026-04-25 07:24 | -32.85783 | 151.88119 | 5440 ft | 404 kts | 181° |
| 2026-04-25 07:24 | -32.88243 | 151.87327 | 7360 ft | 345 kts | 212° |
| 2026-04-25 07:25 | -32.90105 | 151.85673 | 9437 ft | 302 kts | 216° |
| 2026-04-25 07:25 | -32.91643 | 151.84439 | 11226 ft | 266 kts | 201° |
| 2026-04-25 07:25 | -32.93787 | 151.84210 | 13595 ft | 377 kts | 178° |
| 2026-04-25 07:25 | -32.96654 | 151.84315 | 15638 ft | 434 kts | 170° |
| 2026-04-25 07:26 | -32.99713 | 151.85046 | 17339 ft | 449 kts | 174° |
| 2026-04-25 07:26 | -33.02910 | 151.85210 | 19294 ft | 468 kts | 179° |
| 2026-04-25 07:26 | -33.06192 | 151.85066 | 21344 ft | 477 kts | 182° |
| 2026-04-25 07:26 | -33.09498 | 151.85004 | 23653 ft | 457 kts | 179° |
| 2026-04-25 07:27 | -33.12748 | 151.84880 | 25204 ft | 477 kts | 179° |
| 2026-04-25 07:27 | -33.16053 | 151.85214 | 26721 ft | 479 kts | 167° |
| 2026-04-25 07:27 | -33.19388 | 151.85988 | 28429 ft | 495 kts | 169° |
| 2026-04-25 07:27 | -33.22847 | 151.86627 | 29543 ft | 509 kts | 172° |
| 2026-04-25 07:28 | -33.26373 | 151.87008 | 30426 ft | 509 kts | 175° |
| 2026-04-25 07:28 | -33.29915 | 151.87252 | 31240 ft | 514 kts | 178° |
| 2026-04-25 07:28 | -33.33510 | 151.87481 | 31985 ft | 518 kts | 175° |
| 2026-04-25 07:28 | -33.37108 | 151.87819 | 32845 ft | 522 kts | 174° |
| 2026-04-25 07:29 | -33.40769 | 151.87842 | 33673 ft | 534 kts | 190° |
| 2026-04-25 07:29 | -33.44237 | 151.86136 | 33759 ft | 546 kts | 208° |
| 2026-04-25 07:29 | -33.47403 | 151.83635 | 33461 ft | 548 kts | 216° |
| 2026-04-25 07:29 | -33.50291 | 151.80889 | 33360 ft | 512 kts | 214° |
| 2026-04-25 07:30 | -33.56171 | 151.76004 | 33362 ft | 516 kts | 209° |
| 2026-04-25 07:30 | -33.59217 | 151.73742 | 33547 ft | 506 kts | 206° |
| 2026-04-25 07:30 | -33.62334 | 151.71727 | 34548 ft | 513 kts | 208° |
| 2026-04-25 07:31 | -33.65281 | 151.69323 | 35297 ft | 511 kts | 213° |
| 2026-04-25 07:31 | -33.68123 | 151.66730 | 35874 ft | 515 kts | 215° |
| 2026-04-25 07:31 | -33.71015 | 151.64206 | 36190 ft | 514 kts | 211° |
| 2026-04-25 07:31 | -33.74008 | 151.61839 | 36067 ft | 513 kts | 212° |
| 2026-04-25 07:32 | -33.79706 | 151.56713 | 36223 ft | 513 kts | 210° |
| 2026-04-25 07:32 | -33.85966 | 151.52660 | 36354 ft | 510 kts | 208° |
| 2026-04-25 07:33 | -33.92166 | 151.48484 | 36357 ft | 512 kts | 209° |
| 2026-04-25 07:33 | -33.98182 | 151.43919 | 36331 ft | 513 kts | 214° |
| 2026-04-25 07:34 | -34.03749 | 151.38531 | 36457 ft | 514 kts | 214° |
| 2026-04-25 07:34 | -34.06817 | 151.36334 | 36337 ft | 513 kts | 210° |
| 2026-04-25 07:34 | -34.09844 | 151.34074 | 36338 ft | 511 kts | 209° |
| 2026-04-25 07:35 | -34.16101 | 151.30027 | 36334 ft | 510 kts | 205° |
| 2026-04-25 07:35 | -34.22004 | 151.25221 | 36312 ft | 513 kts | 213° |
| 2026-04-25 07:36 | -34.27885 | 151.20339 | 36352 ft | 513 kts | 214° |
| 2026-04-25 07:36 | -34.33636 | 151.15226 | 36363 ft | 513 kts | 215° |
| 2026-04-25 07:37 | -34.38433 | 151.08852 | 36242 ft | 520 kts | 236° |
| 2026-04-25 07:37 | -34.42318 | 151.01469 | 36327 ft | 519 kts | 233° |
| 2026-04-25 07:38 | -34.46756 | 150.94627 | 36318 ft | 515 kts | 224° |
| 2026-04-25 07:38 | -34.51456 | 150.88060 | 36339 ft | 517 kts | 229° |
| 2026-04-25 07:39 | -34.55869 | 150.81156 | 36354 ft | 518 kts | 232° |
| 2026-04-25 07:39 | -34.59786 | 150.73805 | 36344 ft | 519 kts | 237° |
| 2026-04-25 07:40 | -34.63464 | 150.66336 | 36336 ft | 517 kts | 232° |
| 2026-04-25 07:40 | -34.65566 | 150.62786 | 36188 ft | 521 kts | 233° |
| 2026-04-25 07:40 | -34.67694 | 150.59193 | 35073 ft | 524 kts | 231° |
| 2026-04-25 07:41 | -34.69892 | 150.55664 | 34064 ft | 523 kts | 231° |
| 2026-04-25 07:41 | -34.72160 | 150.52193 | 32959 ft | 527 kts | 229° |
| 2026-04-25 07:41 | -34.74453 | 150.48701 | 31855 ft | 530 kts | 230° |
| 2026-04-25 07:41 | -34.76698 | 150.45137 | 30764 ft | 532 kts | 232° |
| 2026-04-25 07:42 | -34.78879 | 150.41517 | 29586 ft | 522 kts | 232° |
| 2026-04-25 07:42 | -34.80940 | 150.37903 | 28380 ft | 518 kts | 237° |
| 2026-04-25 07:42 | -34.82874 | 150.34258 | 27212 ft | 509 kts | 235° |
| 2026-04-25 07:42 | -34.84859 | 150.30704 | 26172 ft | 504 kts | 233° |
| 2026-04-25 07:43 | -34.86891 | 150.27269 | 24424 ft | 496 kts | 233° |
| 2026-04-25 07:43 | -34.88907 | 150.23933 | 22366 ft | 481 kts | 232° |
| 2026-04-25 07:43 | -34.90862 | 150.20688 | 20371 ft | 470 kts | 233° |
| 2026-04-25 07:43 | -34.92692 | 150.17417 | 18533 ft | 462 kts | 234° |
| 2026-04-25 07:44 | -34.94533 | 150.14277 | 16656 ft | 448 kts | 231° |
| 2026-04-25 07:44 | -34.96366 | 150.11291 | 14976 ft | 431 kts | 234° |
| 2026-04-25 07:44 | -34.98096 | 150.08396 | 13896 ft | 414 kts | 234° |
| 2026-04-25 07:44 | -34.99812 | 150.05560 | 13252 ft | 415 kts | 234° |
| 2026-04-25 07:45 | -35.01504 | 150.02666 | 13301 ft | 419 kts | 234° |
| 2026-04-25 07:45 | -35.03145 | 149.99709 | 13331 ft | 423 kts | 236° |
| 2026-04-25 07:45 | -35.04759 | 149.96715 | 13233 ft | 417 kts | 242° |
| 2026-04-25 07:45 | -35.05988 | 149.93457 | 13066 ft | 425 kts | 248° |
| 2026-04-25 07:46 | -35.06938 | 149.90121 | 11569 ft | 414 kts | 255° |
| 2026-04-25 07:46 | -35.07660 | 149.86774 | 10350 ft | 405 kts | 254° |
| 2026-04-25 07:46 | -35.08362 | 149.83473 | 9782 ft | 402 kts | 256° |
| 2026-04-25 07:46 | -35.09178 | 149.80233 | 9455 ft | 404 kts | 248° |
| 2026-04-25 07:47 | -35.10196 | 149.77082 | 8676 ft | 395 kts | 249° |
| 2026-04-25 07:47 | -35.11238 | 149.73990 | 7923 ft | 390 kts | 247° |
| 2026-04-25 07:47 | -35.12317 | 149.70963 | 7460 ft | 390 kts | 246° |
| 2026-04-25 07:47 | -35.13408 | 149.67950 | 7036 ft | 386 kts | 248° |
| 2026-04-25 07:48 | -35.14433 | 149.64925 | 6580 ft | 383 kts | 252° |
| 2026-04-25 07:48 | -35.15250 | 149.61830 | 6191 ft | 382 kts | 253° |
| 2026-04-25 07:48 | -35.16056 | 149.58751 | 6046 ft | 382 kts | 253° |
| 2026-04-25 07:48 | -35.16871 | 149.55654 | 6065 ft | 382 kts | 252° |
| 2026-04-25 07:49 | -35.17701 | 149.52564 | 6068 ft | 382 kts | 252° |
| 2026-04-25 07:49 | -35.18532 | 149.49472 | 6055 ft | 383 kts | 252° |
| 2026-04-25 07:49 | -35.19417 | 149.46399 | 6029 ft | 384 kts | 250° |
| 2026-04-25 07:49 | -35.20552 | 149.43479 | 5996 ft | 383 kts | 233° |
| 2026-04-25 07:50 | -35.22625 | 149.41615 | 5929 ft | 353 kts | 186° |
| 2026-04-25 07:50 | -35.24827 | 149.42103 | 6084 ft | 298 kts | 164° |
| 2026-04-25 07:50 | -35.26750 | 149.42662 | 5713 ft | 285 kts | 173° |
| 2026-04-25 07:50 | -35.28684 | 149.42922 | 5003 ft | 282 kts | 174° |
| 2026-04-25 07:51 | -35.30592 | 149.43215 | 4415 ft | 270 kts | 171° |
| 2026-04-25 07:51 | -35.32338 | 149.43618 | 4298 ft | 246 kts | 170° |
| 2026-04-25 07:51 | -35.34144 | 149.43919 | 4334 ft | 281 kts | 176° |
| 2026-04-25 07:51 | -35.36042 | 149.44178 | 4394 ft | 274 kts | 169° |
| 2026-04-25 07:52 | -35.37902 | 149.44634 | 4420 ft | 271 kts | 171° |
| 2026-04-25 07:52 | -35.39745 | 149.44369 | 4477 ft | 274 kts | 205° |
| 2026-04-25 07:52 | -35.41222 | 149.42989 | 4425 ft | 266 kts | 232° |
| 2026-04-25 07:52 | -35.42163 | 149.41040 | 4415 ft | 262 kts | 260° |
| 2026-04-25 07:53 | -35.42169 | 149.38779 | 4461 ft | 269 kts | 272° |
| 2026-04-25 07:53 | -35.42282 | 149.36319 | 4530 ft | 278 kts | 268° |
| 2026-04-25 07:53 | -35.42365 | 149.34108 | 4561 ft | 247 kts | 271° |
| 2026-04-25 07:53 | -35.42300 | 149.31795 | 4525 ft | 283 kts | 274° |
| 2026-04-25 07:54 | -35.42287 | 149.29495 | 4492 ft | 256 kts | 270° |
| 2026-04-25 07:54 | -35.42267 | 149.27275 | 4476 ft | 273 kts | 272° |
| 2026-04-25 07:54 | -35.42221 | 149.24976 | 4470 ft | 258 kts | 271° |
| 2026-04-25 07:54 | -35.42244 | 149.22769 | 4463 ft | 287 kts | 270° |
| 2026-04-25 07:55 | -35.41747 | 149.20571 | 4377 ft | 258 kts | 299° |
| 2026-04-25 07:55 | -35.40269 | 149.19470 | 3589 ft | 302 kts | 349° |
| 2026-04-25 07:55 | -35.38293 | 149.19379 | 3144 ft | 255 kts | 1° |
| 2026-04-25 07:55 | -35.36585 | 149.19375 | 2844 ft | 240 kts | 359° |
| 2026-04-25 07:56 | -35.34752 | 149.19397 | 2467 ft | 284 kts | 0° |
| 2026-04-25 07:56 | -35.32945 | 149.19408 | 2378 ft | 256 kts | 360° |
| 2026-04-25 07:56 | -35.31187 | 149.19403 | 2171 ft | 249 kts | 360° |
| 2026-04-25 07:56 | -35.29431 | 149.19396 | 2169 ft | 254 kts | 360° |
| 2026-04-25 07:57 | -35.27817 | 149.18934 | 2444 ft | 259 kts | 332° |
| 2026-04-25 07:57 | -35.26269 | 149.17501 | 3123 ft | 268 kts | 315° |
| 2026-04-25 07:57 | -35.25130 | 149.16027 | 3696 ft | 211 kts | 313° |
| 2026-04-25 07:57 | -35.24164 | 149.14760 | 4113 ft | 207 kts | 313° |
| 2026-04-25 07:58 | -35.23019 | 149.13125 | 4594 ft | 323 kts | 310° |
| 2026-04-25 07:58 | -35.21717 | 149.11010 | 4965 ft | 291 kts | 290° |
| 2026-04-25 07:58 | -35.21736 | 149.08735 | 4720 ft | 258 kts | 253° |
| 2026-04-25 07:58 | -35.22648 | 149.07025 | 4357 ft | 228 kts | 211° |
| 2026-04-25 07:59 | -35.24854 | 149.06928 | 3604 ft | 435 kts | 170° |
| 2026-04-25 07:59 | -35.27611 | 149.08095 | 3064 ft | 394 kts | 154° |
| 2026-04-25 07:59 | -35.29724 | 149.09402 | 2872 ft | 341 kts | 152° |
| 2026-04-25 07:59 | -35.30980 | 149.11365 | 2620 ft | 267 kts | 77° |
| 2026-04-25 08:00 | -35.29941 | 149.13167 | 2220 ft | 297 kts | 32° |
| 2026-04-25 08:00 | -35.28510 | 149.14428 | 2208 ft | 229 kts | 35° |
| 2026-04-25 08:00 | -35.27012 | 149.15726 | 3274 ft | 338 kts | 33° |
| 2026-04-25 08:00 | -35.24770 | 149.17579 | 5140 ft | 419 kts | 33° |
| 2026-04-25 08:01 | -35.22440 | 149.19504 | 7202 ft | 369 kts | 33° |
| 2026-04-25 08:01 | -35.20233 | 149.21252 | 9248 ft | 394 kts | 33° |
| 2026-04-25 08:01 | -35.17980 | 149.23105 | 11357 ft | 405 kts | 33° |
| 2026-04-25 08:01 | -35.15645 | 149.25054 | 13690 ft | 411 kts | 34° |
| 2026-04-25 08:02 | -35.14013 | 149.26380 | 15346 ft | 421 kts | 32° |
| 2026-04-25 08:02 | -35.10665 | 149.29041 | 18245 ft | 442 kts | 33° |
| 2026-04-25 08:02 | -35.08053 | 149.31132 | 20567 ft | 452 kts | 32° |
| 2026-04-25 08:02 | -35.05364 | 149.33308 | 23057 ft | 473 kts | 34° |
| 2026-04-25 08:03 | -35.02583 | 149.35577 | 25594 ft | 490 kts | 34° |
| 2026-04-25 08:03 | -34.99612 | 149.37858 | 28041 ft | 516 kts | 22° |
| 2026-04-25 08:03 | -34.96063 | 149.38817 | 30753 ft | 535 kts | 5° |
| 2026-04-25 08:03 | -34.92278 | 149.38854 | 33403 ft | 542 kts | 1° |
| 2026-04-25 08:04 | -34.89807 | 149.39022 | 34940 ft | 539 kts | 2° |
| 2026-04-25 08:04 | -34.86052 | 149.39002 | 36796 ft | 540 kts | 358° |
| 2026-04-25 08:04 | -34.82218 | 149.38902 | 37197 ft | 557 kts | 358° |
| 2026-04-25 08:04 | -34.78367 | 149.38809 | 37231 ft | 548 kts | 358° |
| 2026-04-25 08:05 | -34.70946 | 149.40246 | 37081 ft | 550 kts | 31° |
| 2026-04-25 08:05 | -34.68110 | 149.43290 | 36941 ft | 546 kts | 57° |
| 2026-04-25 08:05 | -34.66670 | 149.47482 | 36905 ft | 540 kts | 77° |
| 2026-04-25 08:06 | -34.65610 | 149.51824 | 37161 ft | 520 kts | 74° |
| 2026-04-25 08:06 | -34.64553 | 149.55971 | 37289 ft | 514 kts | 75° |
| 2026-04-25 08:06 | -34.62441 | 149.64333 | 37357 ft | 516 kts | 73° |
| 2026-04-25 08:07 | -34.59336 | 149.72201 | 37336 ft | 521 kts | 64° |
| 2026-04-25 08:07 | -34.57616 | 149.76203 | 37356 ft | 545 kts | 64° |
| 2026-04-25 08:07 | -34.55876 | 149.80276 | 37359 ft | 542 kts | 64° |
| 2026-04-25 08:08 | -34.52434 | 149.88403 | 37358 ft | 542 kts | 64° |
| 2026-04-25 08:08 | -34.49027 | 149.96538 | 37363 ft | 540 kts | 65° |
| 2026-04-25 08:09 | -34.45660 | 150.04669 | 37364 ft | 540 kts | 65° |
| 2026-04-25 08:09 | -34.42296 | 150.12814 | 37363 ft | 541 kts | 64° |
| 2026-04-25 08:10 | -34.38726 | 150.20829 | 37372 ft | 539 kts | 63° |
| 2026-04-25 08:10 | -34.35218 | 150.28775 | 37365 ft | 538 kts | 64° |
| 2026-04-25 08:11 | -34.31463 | 150.36634 | 37343 ft | 541 kts | 56° |
| 2026-04-25 08:11 | -34.27194 | 150.44131 | 37363 ft | 541 kts | 58° |
| 2026-04-25 08:12 | -34.23336 | 150.51858 | 37308 ft | 525 kts | 71° |
| 2026-04-25 08:12 | -34.20573 | 150.60042 | 37292 ft | 539 kts | 62° |
| 2026-04-25 08:13 | -34.16778 | 150.67863 | 37357 ft | 539 kts | 62° |
| 2026-04-25 08:14 | -34.11270 | 150.79689 | 36773 ft | 544 kts | 62° |
| 2026-04-25 08:14 | -34.09411 | 150.83651 | 35356 ft | 539 kts | 62° |
| 2026-04-25 08:14 | -34.07658 | 150.87643 | 34203 ft | 540 kts | 63° |
| 2026-04-25 08:14 | -34.05762 | 150.91568 | 32904 ft | 544 kts | 58° |
| 2026-04-25 08:15 | -34.03697 | 150.95394 | 31817 ft | 545 kts | 62° |
| 2026-04-25 08:15 | -34.01782 | 150.99359 | 30719 ft | 549 kts | 63° |
| 2026-04-25 08:15 | -33.99926 | 151.03388 | 29497 ft | 551 kts | 63° |
| 2026-04-25 08:15 | -33.98087 | 151.07408 | 29275 ft | 547 kts | 63° |
| 2026-04-25 08:16 | -33.96266 | 151.11443 | 29415 ft | 549 kts | 63° |
| 2026-04-25 08:16 | -33.94480 | 151.15505 | 29581 ft | 547 kts | 66° |
| 2026-04-25 08:16 | -33.92779 | 151.19610 | 29803 ft | 549 kts | 63° |
| 2026-04-25 08:16 | -33.90862 | 151.23522 | 30058 ft | 542 kts | 56° |
| 2026-04-25 08:17 | -33.88409 | 151.27008 | 30211 ft | 549 kts | 51° |
| 2026-04-25 08:17 | -33.85843 | 151.30349 | 30112 ft | 531 kts | 50° |
| 2026-04-25 08:17 | -33.83333 | 151.33764 | 30182 ft | 546 kts | 46° |
| 2026-04-25 08:17 | -33.80665 | 151.37017 | 30048 ft | 543 kts | 51° |
| 2026-04-25 08:18 | -33.78354 | 151.40585 | 30057 ft | 540 kts | 58° |
| 2026-04-25 08:18 | -33.73216 | 151.47033 | 29494 ft | 537 kts | 34° |
| 2026-04-25 08:18 | -33.70600 | 151.50207 | 29552 ft | 537 kts | 58° |
| 2026-04-25 08:19 | -33.68584 | 151.53969 | 30140 ft | 548 kts | 59° |
| 2026-04-25 08:19 | -33.66387 | 151.57666 | 29902 ft | 542 kts | 54° |
| 2026-04-25 08:19 | -33.63763 | 151.60917 | 29754 ft | 545 kts | 37° |
| 2026-04-25 08:19 | -33.60260 | 151.62593 | 28148 ft | 544 kts | 12° |
| 2026-04-25 08:20 | -33.56649 | 151.63514 | 26155 ft | 517 kts | 14° |
| 2026-04-25 08:20 | -33.53203 | 151.64374 | 24257 ft | 497 kts | 12° |
| 2026-04-25 08:20 | -33.49832 | 151.65002 | 22339 ft | 485 kts | 8° |
| 2026-04-25 08:20 | -33.46573 | 151.65617 | 20936 ft | 467 kts | 17° |
| 2026-04-25 08:21 | -33.43394 | 151.66559 | 19927 ft | 464 kts | 15° |
| 2026-04-25 08:21 | -33.40269 | 151.67398 | 18142 ft | 453 kts | 13° |
| 2026-04-25 08:21 | -33.37177 | 151.67917 | 16706 ft | 448 kts | 6° |
| 2026-04-25 08:21 | -33.34080 | 151.67887 | 15231 ft | 442 kts | 358° |
| 2026-04-25 08:22 | -33.31121 | 151.68376 | 13810 ft | 429 kts | 28° |
| 2026-04-25 08:22 | -33.28445 | 151.69747 | 12104 ft | 416 kts | 22° |
| 2026-04-25 08:22 | -33.25897 | 151.71190 | 11010 ft | 408 kts | 25° |
| 2026-04-25 08:22 | -33.23274 | 151.72527 | 10004 ft | 403 kts | 25° |
| 2026-04-25 08:23 | -33.20649 | 151.73476 | 9017 ft | 395 kts | 15° |
| 2026-04-25 08:23 | -33.17971 | 151.74224 | 8290 ft | 393 kts | 15° |
| 2026-04-25 08:23 | -33.15345 | 151.75010 | 7503 ft | 387 kts | 14° |
| 2026-04-25 08:23 | -33.12707 | 151.75564 | 6756 ft | 381 kts | 10° |
| 2026-04-25 08:24 | -33.10108 | 151.76096 | 6226 ft | 379 kts | 12° |
| 2026-04-25 08:24 | -33.07521 | 151.76738 | 5683 ft | 378 kts | 13° |
| 2026-04-25 08:24 | -33.04977 | 151.77464 | 5128 ft | 375 kts | 14° |
| 2026-04-25 08:24 | -33.02421 | 151.78052 | 4621 ft | 373 kts | 11° |
| 2026-04-25 08:25 | -32.99898 | 151.78601 | 3955 ft | 366 kts | 12° |
| 2026-04-25 08:25 | -32.97407 | 151.79091 | 3271 ft | 360 kts | 11° |
| 2026-04-25 08:25 | -32.94953 | 151.79581 | 2618 ft | 352 kts | 11° |
| 2026-04-25 08:25 | -32.92533 | 151.79716 | 1927 ft | 353 kts | 348° |
| 2026-04-25 08:26 | -32.90533 | 151.78071 | 1798 ft | 360 kts | 312° |
| 2026-04-25 08:26 | -32.88906 | 151.75780 | 1832 ft | 364 kts | 313° |
| 2026-04-25 08:26 | -32.87224 | 151.73531 | 1850 ft | 365 kts | 314° |
| 2026-04-25 08:26 | -32.85549 | 151.71272 | 1851 ft | 364 kts | 314° |
| 2026-04-25 08:27 | -32.83683 | 151.69252 | 1828 ft | 360 kts | 321° |
| 2026-04-25 08:27 | -32.81574 | 151.67788 | 2213 ft | 352 kts | 355° |
| 2026-04-25 08:27 | -32.79240 | 151.68422 | 2346 ft | 345 kts | 36° |
| 2026-04-25 08:27 | -32.77852 | 151.70645 | 2197 ft | 347 kts | 68° |
| 2026-04-25 08:28 | -32.76950 | 151.73286 | 2313 ft | 345 kts | 68° |
| 2026-04-25 08:28 | -32.76139 | 151.75976 | 2357 ft | 347 kts | 73° |
| 2026-04-25 08:28 | -32.76165 | 151.78812 | 1593 ft | 345 kts | 109° |
| 2026-04-25 08:28 | -32.77631 | 151.81108 | 660 ft | 347 kts | 130° |
| 2026-04-25 08:29 | -32.79214 | 151.83304 | 582 ft | 350 kts | 129° |
| 2026-04-25 08:29 | -32.81074 | 151.84707 | 1160 ft | 318 kts | 218° |
| 2026-04-25 08:29 | -32.80872 | 151.82607 | 1368 ft | 318 kts | 303° |
| 2026-04-25 08:29 | -32.79708 | 151.80281 | 1314 ft | 315 kts | 304° |
| 2026-04-25 08:30 | -32.78280 | 151.78957 | 1533 ft | 229 kts | 12° |
| 2026-04-25 08:30 | -32.77491 | 151.80365 | 1797 ft | 255 kts | 103° |
| 2026-04-25 08:30 | -32.78398 | 151.81824 | 325 ft | 181 kts | 129° |
| 2026-04-25 08:30 | -32.79363 | 151.83206 | 450 ft | 301 kts | 127° |
| 2026-04-25 08:31 | -32.80595 | 151.84976 | 1858 ft | 266 kts | 127° |
| 2026-04-25 08:31 | -32.81869 | 151.86882 | 3280 ft | 337 kts | 124° |
| 2026-04-25 08:31 | -32.83245 | 151.88911 | 3360 ft | 289 kts | 144° |
| 2026-04-25 08:31 | -32.84567 | 151.88192 | 3170 ft | 296 kts | 273° |
| 2026-04-25 08:32 | -32.83400 | 151.85449 | 2646 ft | 404 kts | 304° |
| 2026-04-25 08:32 | -32.81962 | 151.83029 | 1865 ft | 302 kts | 310° |
| 2026-04-25 08:32 | -32.80707 | 151.81112 | 1562 ft | 282 kts | 311° |
| 2026-04-25 08:32 | -32.79526 | 151.79317 | 1528 ft | 266 kts | 311° |
| 2026-04-25 08:33 | -32.78189 | 151.78119 | 1465 ft | 235 kts | 4° |
| 2026-04-25 08:33 | -32.77339 | 151.79286 | 1563 ft | 202 kts | 89° |
| 2026-04-25 08:33 | -32.77707 | 151.80790 | 559 ft | 182 kts | 122° |
| 2026-04-25 08:33 | -32.78435 | 151.81863 | 143 ft | 150 kts | 128° |
| 2026-04-25 08:34 | -32.79072 | 151.82746 | 33 ft | 134 kts | 128° |
| 2026-04-25 08:34 | -32.79558 | 151.83438 | 28 ft | 85 kts | 130° |
| 2026-04-25 08:34 | -32.79831 | 151.83822 | 31 ft | 19 kts | 121° |
| 2026-04-25 08:34 | -32.79798 | 151.83955 | 32 ft | 18 kts | 51° |
| 2026-04-25 08:35 | -32.79713 | 151.83945 | 31 ft | 15 kts | 310° |
| 2026-04-25 08:35 | -32.79643 | 151.83847 | 31 ft | 16 kts | 308° |
| 2026-04-25 08:35 | -32.79564 | 151.83738 | 28 ft | 19 kts | 311° |
| 2026-04-25 08:35 | -32.79463 | 151.83595 | 28 ft | 23 kts | 310° |
| 2026-04-25 08:36 | -32.79376 | 151.83476 | 28 ft | 13 kts | 323° |
| 2026-04-25 08:36 | -32.79280 | 151.83543 | 31 ft | 19 kts | 41° |
| 2026-04-25 08:36 | -32.79183 | 151.83642 | 32 ft | 19 kts | 40° |
| 2026-04-25 08:36 | -32.79085 | 151.83732 | 31 ft | 11 kts | 6° |
| 2026-04-25 08:37 | -32.79020 | 151.83699 | 31 ft | 10 kts | 9° |
| 2026-04-25 08:37 | -32.79001 | 151.83755 | 31 ft | 8 kts | 143° |
| 2026-04-25 08:37 | -32.79065 | 151.83810 | 31 ft | 7 kts | 139° |
| 2026-04-25 08:37 | -32.79053 | 151.83850 | 31 ft | 0 kts | 54° |